Time;durP1;ratioP1;P1;durP2;ratioP2;P2;SDS_P1;SDS_P2;PMS_P1;PMS_P2;Temp;Humidity;BMP_temperature;BMP_pressure;BME280_temperature;BME280_humidity;BME280_pressure;Samples;Min_cycle;Max_cycle;Signal;HPM_P1;HPM_P2
2023/04/23 00:01:27;;;;;;;8.53;7.83;;;17.70;81.60;;;20.45;54.52;100560.16;5034944;28;20209;-59
2023/04/23 00:03:57;;;;;;;9.40;8.50;;;17.60;81.50;;;20.41;54.50;100569.72;5034357;28;20204;-63
2023/04/23 00:06:25;;;;;;;10.27;9.37;;;17.60;81.20;;;20.37;54.08;100553.38;5035097;28;20592;-58
2023/04/23 00:08:54;;;;;;;8.73;8.03;;;17.60;80.50;;;20.33;53.75;100556.75;5016164;28;20206;-55
2023/04/23 00:11:21;;;;;;;9.63;8.83;;;17.50;79.80;;;20.27;53.24;100560.41;5034279;28;20251;-58
2023/04/23 00:13:49;;;;;;;8.97;8.17;;;17.40;79.10;;;20.20;53.00;100563.22;5033893;28;20194;-57
2023/04/23 00:16:19;;;;;;;8.47;7.77;;;17.40;78.70;;;20.14;53.35;100564.97;5033383;28;20194;-55
2023/04/23 00:18:46;;;;;;;9.40;8.60;;;17.30;78.40;;;20.09;52.60;100562.22;5034830;28;20198;-55
2023/04/23 00:21:14;;;;;;;9.93;9.13;;;17.30;77.90;;;20.01;52.10;100557.28;5034026;28;20230;-58
2023/04/23 00:23:41;;;;;;;10.53;9.60;;;17.30;77.40;;;19.96;52.49;100557.19;5032415;28;20571;-60
2023/04/23 00:26:08;;;;;;;12.23;11.20;;;17.20;77.20;;;19.89;52.02;100567.22;5034237;28;20191;-58
2023/04/23 00:28:35;;;;;;;11.53;10.53;;;17.10;76.90;;;19.85;51.81;100568.72;5034903;28;20558;-57
2023/04/23 00:31:02;;;;;;;11.47;10.47;;;17.10;77.00;;;19.81;51.96;100564.91;5033929;28;20218;-58
2023/04/23 00:33:30;;;;;;;11.57;10.67;;;17.00;76.80;;;19.77;51.83;100566.44;5034068;28;20332;-59
2023/04/23 00:35:57;;;;;;;11.30;10.40;;;17.00;76.90;;;19.73;51.92;100573.28;5034251;28;20217;-57
2023/04/23 00:38:25;;;;;;;13.40;12.20;;;16.90;76.80;;;19.67;51.85;100578.78;5049649;28;20194;-56
2023/04/23 00:40:52;;;;;;;12.80;11.70;;;16.90;76.80;;;19.60;51.89;100584.28;5034125;28;20218;-60
2023/04/23 00:43:19;;;;;;;13.30;12.20;;;16.80;77.00;;;19.57;52.20;100582.06;5034271;28;20556;-60
2023/04/23 00:45:47;;;;;;;13.10;12.00;;;16.80;77.10;;;19.54;51.92;100583.34;5033415;28;20225;-58
2023/04/23 00:48:15;;;;;;;14.27;13.07;;;16.70;77.00;;;19.52;52.21;100587.31;5034326;28;20545;-58
2023/04/23 00:50:43;;;;;;;13.07;11.97;;;16.70;77.40;;;19.47;52.44;100584.53;5033491;28;20194;-55
2023/04/23 00:53:10;;;;;;;14.60;13.30;;;16.60;77.60;;;19.43;52.10;100586.88;5033980;28;20205;-58
2023/04/23 00:55:37;;;;;;;13.60;12.47;;;16.60;77.70;;;19.41;52.25;100590.81;5033564;28;20210;-59
2023/04/23 00:58:05;;;;;;;13.80;12.50;;;16.60;77.80;;;19.36;52.29;100583.53;5034144;28;20187;-58
2023/04/23 01:00:39;;;;;;;15.03;13.73;;;16.60;78.00;;;19.34;52.35;100580.25;5048975;28;20217;-59
2023/04/23 01:03:06;;;;;;;14.73;13.43;;;16.50;78.40;;;19.31;52.51;100585.25;5034131;28;20194;-57
2023/04/23 01:05:34;;;;;;;16.23;14.70;;;16.50;78.90;;;19.25;52.55;100581.66;5033826;28;20207;-59
2023/04/23 01:08:03;;;;;;;17.50;15.77;;;16.40;77.80;;;19.18;52.25;100585.50;5033425;28;20194;-58
2023/04/23 01:10:31;;;;;;;18.33;16.47;;;16.40;77.50;;;19.10;52.53;100583.19;5033485;28;20523;-58
2023/04/23 01:12:59;;;;;;;18.63;16.83;;;16.30;77.40;;;19.01;52.72;100584.59;5048846;28;20201;-57
2023/04/23 01:15:26;;;;;;;15.77;14.17;;;16.30;77.20;;;18.91;52.71;100586.00;5033268;28;20267;-56
2023/04/23 01:17:53;;;;;;;16.33;14.63;;;16.20;77.20;;;18.85;52.63;100581.56;5032966;28;20258;-61
2023/04/23 01:20:20;;;;;;;16.40;14.80;;;16.20;77.30;;;18.79;52.64;100582.50;5033708;28;20575;-58
2023/04/23 01:22:48;;;;;;;17.70;15.90;;;16.10;77.40;;;18.77;52.52;100584.59;5033451;28;20686;-58
2023/04/23 01:25:15;;;;;;;16.80;15.13;;;16.00;77.50;;;18.74;52.41;100582.38;5032548;28;20232;-55
2023/04/23 01:27:43;;;;;;;17.47;15.67;;;16.00;77.40;;;18.71;52.52;100590.84;5033329;28;20248;-60
2023/04/23 01:30:11;;;;;;;16.20;14.50;;;15.90;77.40;;;18.67;52.44;100584.38;5033460;28;20187;-58
2023/04/23 01:32:39;;;;;;;18.10;16.20;;;15.90;77.40;;;18.62;52.76;100597.56;5048150;28;20190;-55
2023/04/23 01:35:08;;;;;;;19.07;16.27;;;15.90;77.40;;;18.54;52.77;100589.91;5046329;28;20364;-58
2023/04/23 01:37:37;;;;;;;17.93;16.23;;;15.80;77.40;;;18.51;52.71;100589.56;5033238;28;20195;-56
2023/04/23 01:40:07;;;;;;;17.93;15.93;;;15.70;77.50;;;18.45;52.92;100591.25;5033307;28;20229;-59
2023/04/23 01:42:35;;;;;;;17.60;15.90;;;15.70;77.70;;;18.42;53.08;100589.06;5047921;28;20198;-59
2023/04/23 01:45:03;;;;;;;19.00;17.07;;;15.70;77.90;;;18.37;53.11;100594.28;5031897;28;20230;-58
2023/04/23 01:47:30;;;;;;;17.30;15.50;;;15.60;77.80;;;18.34;52.96;100586.72;5033325;28;20574;-58
2023/04/23 01:49:57;;;;;;;16.73;15.13;;;15.60;77.80;;;18.33;53.00;100586.97;5033806;28;20194;-60
2023/04/23 01:52:25;;;;;;;16.30;14.60;;;15.60;77.90;;;18.31;53.01;100592.50;5046982;28;20207;-59
2023/04/23 01:54:53;;;;;;;17.20;15.40;;;15.50;77.70;;;18.30;52.78;100598.88;5014878;28;20256;-60
2023/04/23 01:57:25;;;;;;;16.13;14.37;;;15.50;77.70;;;18.28;52.70;100596.44;5032828;28;20195;-59
2023/04/23 02:00:07;;;;;;;16.00;14.40;;;15.50;77.70;;;18.25;52.70;100604.91;5038699;28;20248;-59
2023/04/23 02:02:34;;;;;;;16.50;14.87;;;15.50;77.80;;;18.25;52.79;100606.75;5037650;28;20175;-58
2023/04/23 02:05:03;;;;;;;16.37;14.17;;;15.40;77.60;;;18.25;52.75;100606.75;5036535;28;20550;-57
2023/04/23 02:07:31;;;;;;;16.07;14.50;;;15.40;77.50;;;18.21;52.52;100600.22;5036576;28;20667;-59
2023/04/23 02:09:58;;;;;;;16.30;14.63;;;15.40;77.00;;;18.15;52.55;100615.28;5035714;28;20203;-58
2023/04/23 02:12:26;;;;;;;16.47;14.87;;;15.40;76.70;;;18.10;51.99;100609.00;5036417;28;20190;-59
2023/04/23 02:14:53;;;;;;;15.33;13.67;;;15.40;76.20;;;18.03;51.93;100602.97;5035588;28;20228;-59
2023/04/23 02:17:21;;;;;;;13.90;12.50;;;15.30;75.90;;;17.96;51.69;100596.91;5035126;28;20225;-58
2023/04/23 02:19:49;;;;;;;14.33;12.83;;;15.20;75.50;;;17.87;51.65;100598.28;5036477;28;20317;-58
2023/04/23 02:22:17;;;;;;;14.67;13.23;;;15.20;75.40;;;17.81;51.69;100604.47;5035025;28;20198;-57
2023/04/23 02:24:46;;;;;;;12.47;11.20;;;15.10;75.20;;;17.76;51.81;100609.69;5043624;28;20210;-57
2023/04/23 02:27:13;;;;;;;14.03;12.70;;;15.10;75.30;;;17.73;51.67;100608.28;5052989;28;20285;-59
2023/04/23 02:29:41;;;;;;;16.70;14.93;;;15.00;75.30;;;17.70;51.77;100607.91;5054936;28;20190;-56
2023/04/23 02:32:09;;;;;;;15.67;14.13;;;14.90;75.20;;;17.64;51.46;100604.28;5035118;28;20671;-60
2023/04/23 02:34:36;;;;;;;15.70;14.00;;;14.90;75.20;;;17.59;51.56;100607.63;5035517;28;20242;-58
2023/04/23 02:37:04;;;;;;;15.30;13.73;;;14.90;75.30;;;17.53;51.61;100608.53;5035055;28;20485;-58
2023/04/23 02:39:31;;;;;;;15.17;13.40;;;14.80;75.20;;;17.50;51.49;100610.78;5028628;28;20689;-60
2023/04/23 02:41:58;;;;;;;15.97;14.37;;;14.70;75.20;;;17.46;51.57;100615.75;5035632;28;20221;-58
2023/04/23 02:44:25;;;;;;;17.10;15.30;;;14.70;75.40;;;17.42;51.60;100619.88;5035035;28;20301;-57
2023/04/23 02:46:53;;;;;;;15.23;13.63;;;14.70;75.50;;;17.39;51.73;100607.03;5035581;28;20198;-55
2023/04/23 02:49:20;;;;;;;16.07;14.43;;;14.70;75.60;;;17.36;51.70;100609.31;5035460;28;20285;-58
2023/04/23 02:51:47;;;;;;;15.50;12.73;;;14.60;75.50;;;17.32;51.84;100621.44;5035638;28;20182;-56
2023/04/23 02:54:14;;;;;;;15.67;14.00;;;14.60;75.70;;;17.28;51.98;100615.72;5034789;28;20710;-59
2023/04/23 02:56:41;;;;;;;15.23;13.73;;;14.50;75.70;;;17.26;51.83;100628.44;5035214;28;20208;-58
2023/04/23 02:59:10;;;;;;;15.27;13.67;;;14.50;76.00;;;17.24;52.06;100625.19;5048428;28;20198;-59
2023/04/23 03:01:37;;;;;;;15.47;13.83;;;14.50;76.00;;;17.20;52.16;100621.34;5035254;28;20265;-56
2023/04/23 03:04:06;;;;;;;15.73;14.07;;;14.40;75.90;;;17.17;52.08;100629.75;5035594;28;20272;-60
2023/04/23 03:06:34;;;;;;;16.00;13.87;;;14.40;75.90;;;17.11;52.25;100633.31;5035470;28;20202;-55
2023/04/23 03:09:01;;;;;;;15.90;14.20;;;14.40;75.90;;;17.07;52.24;100628.66;5034872;28;20194;-57
2023/04/23 03:11:28;;;;;;;16.93;15.13;;;14.30;76.00;;;17.03;52.33;100638.09;5034512;28;20651;-62
2023/04/23 03:13:55;;;;;;;16.40;14.30;;;14.30;76.20;;;16.98;52.44;100644.06;5034961;28;20628;-57
2023/04/23 03:16:22;;;;;;;15.67;14.00;;;14.30;76.40;;;16.93;52.52;100639.41;5035486;28;20198;-57
2023/04/23 03:18:49;;;;;;;15.30;13.73;;;14.20;76.30;;;16.92;52.40;100648.41;5035390;28;20210;-59
2023/04/23 03:21:17;;;;;;;15.57;13.47;;;14.20;76.70;;;16.92;52.65;100642.28;5035086;28;20219;-59
2023/04/23 03:23:44;;;;;;;16.40;13.87;;;14.20;76.80;;;16.91;52.76;100651.28;5034973;28;20201;-59
2023/04/23 03:26:11;;;;;;;14.70;13.30;;;14.10;76.80;;;16.91;52.68;100645.97;5035053;28;20257;-57
2023/04/23 03:28:38;;;;;;;17.60;14.60;;;14.10;77.10;;;16.91;52.66;100640.66;5035308;28;20195;-58
2023/04/23 03:31:05;;;;;;;15.50;14.00;;;14.10;77.30;;;16.89;52.79;100637.41;5035346;28;20186;-58
2023/04/23 03:33:32;;;;;;;17.83;14.77;;;14.10;77.30;;;16.87;52.73;100642.13;5035476;28;20237;-60
2023/04/23 03:35:59;;;;;;;17.43;15.50;;;14.10;77.20;;;16.86;52.92;100646.63;5035039;28;20253;-57
2023/04/23 03:38:27;;;;;;;18.40;15.47;;;14.10;77.30;;;16.87;53.03;100639.47;5035681;28;20202;-58
2023/04/23 03:40:54;;;;;;;17.40;15.13;;;14.10;77.70;;;16.89;53.39;100634.75;5035399;28;20221;-57
2023/04/23 03:43:22;;;;;;;16.87;14.80;;;14.10;78.00;;;16.92;53.12;100647.63;5034933;28;20201;-58
2023/04/23 03:45:49;;;;;;;19.63;16.17;;;14.10;78.10;;;16.92;53.02;100643.09;5035415;28;20222;-59
2023/04/23 03:48:16;;;;;;;17.90;16.00;;;14.10;77.90;;;16.93;52.94;100652.69;5035446;28;20198;-60
2023/04/23 03:50:43;;;;;;;16.40;14.70;;;14.10;78.00;;;16.93;53.06;100649.22;5034747;28;20186;-59
2023/04/23 03:53:10;;;;;;;14.73;13.07;;;14.10;77.70;;;16.94;52.88;100650.88;5050566;28;20667;-58
2023/04/23 03:55:38;;;;;;;14.30;12.90;;;14.10;77.70;;;16.93;52.73;100649.22;5035176;28;20214;-59
2023/04/23 03:58:05;;;;;;;15.00;13.00;;;14.10;77.30;;;16.88;52.57;100647.22;5035442;28;20694;-57
2023/04/23 04:00:32;;;;;;;15.87;13.00;;;14.10;76.80;;;16.84;52.73;100651.34;5034576;28;20226;-56
2023/04/23 04:03:00;;;;;;;16.93;14.37;;;14.10;77.00;;;16.81;52.49;100646.47;5035001;28;20194;-59
2023/04/23 04:05:28;;;;;;;16.13;14.53;;;14.00;76.70;;;16.79;52.38;100653.03;5034226;28;20250;-57
2023/04/23 04:07:55;;;;;;;16.97;13.97;;;14.00;76.60;;;16.76;52.38;100653.44;5035247;28;20199;-58
2023/04/23 04:10:22;;;;;;;15.83;14.13;;;14.00;76.60;;;16.74;52.42;100656.34;5034395;28;20198;-56
2023/04/23 04:12:50;;;;;;;15.27;13.77;;;13.90;76.70;;;16.72;52.39;100669.03;5034674;28;20194;-57
2023/04/23 04:15:19;;;;;;;15.20;13.63;;;13.90;76.70;;;16.71;52.53;100666.59;5034200;28;20233;-58
2023/04/23 04:17:46;;;;;;;18.03;15.43;;;13.90;76.80;;;16.67;52.49;100665.38;5034337;28;20190;-59
2023/04/23 04:20:13;;;;;;;17.23;14.60;;;13.90;76.60;;;16.64;52.53;100660.53;5034175;28;20663;-57
2023/04/23 04:22:40;;;;;;;18.93;15.90;;;13.80;76.50;;;16.61;52.56;100655.63;5033301;28;20210;-58
2023/04/23 04:25:08;;;;;;;15.30;13.80;;;13.80;76.60;;;16.59;52.57;100663.81;5033762;28;20222;-57
2023/04/23 04:27:36;;;;;;;15.83;14.17;;;13.80;76.60;;;16.57;52.31;100662.41;5033894;28;20214;-57
2023/04/23 04:30:06;;;;;;;19.23;14.60;;;13.80;76.80;;;16.55;52.44;100667.09;5034136;28;20245;-59
2023/04/23 04:32:34;;;;;;;16.97;13.73;;;13.70;76.70;;;16.56;52.55;100666.09;5032700;28;20617;-57
2023/04/23 04:35:01;;;;;;;16.97;15.17;;;13.70;76.90;;;16.58;52.66;100664.03;5033273;28;20229;-57
2023/04/23 04:37:28;;;;;;;18.17;15.57;;;13.70;76.80;;;16.57;52.32;100662.41;5034691;28;20198;-58
2023/04/23 04:39:55;;;;;;;17.33;15.43;;;13.70;77.50;;;16.56;52.64;100666.09;5034722;28;20233;-59
2023/04/23 04:42:24;;;;;;;17.43;15.53;;;13.70;77.00;;;16.53;52.55;100662.00;5034439;28;20210;-56
2023/04/23 04:44:51;;;;;;;16.60;14.90;;;13.70;76.90;;;16.52;52.35;100667.56;5033504;28;20214;-56
2023/04/23 04:47:20;;;;;;;18.97;16.97;;;13.70;76.90;;;16.51;52.84;100665.88;5033531;28;20659;-57
2023/04/23 04:49:47;;;;;;;17.93;16.13;;;13.70;76.90;;;16.50;52.39;100672.22;5049500;28;20199;-56
2023/04/23 04:52:14;;;;;;;17.87;15.97;;;13.70;76.80;;;16.50;52.46;100680.19;5033877;28;20542;-58
2023/04/23 04:54:41;;;;;;;18.60;16.70;;;13.70;77.00;;;16.50;52.59;100674.88;5033372;28;20221;-58
2023/04/23 04:57:09;;;;;;;21.60;17.67;;;13.60;76.80;;;16.51;52.60;100673.84;5033521;28;20656;-59
2023/04/23 04:59:36;;;;;;;18.67;16.07;;;13.60;77.00;;;16.51;52.51;100679.16;5032843;28;20255;-57
2023/04/23 05:02:03;;;;;;;21.87;16.90;;;13.60;77.00;;;16.52;52.62;100680.84;5032387;28;20284;-61
2023/04/23 05:04:33;;;;;;;17.70;15.93;;;13.60;77.00;;;16.50;52.74;100670.38;5033611;28;20215;-56
2023/04/23 05:07:00;;;;;;;19.10;17.07;;;13.60;76.90;;;16.47;52.61;100665.50;5033682;28;20577;-57
2023/04/23 05:09:27;;;;;;;18.67;16.57;;;13.60;76.80;;;16.47;52.53;100672.66;5034534;28;20198;-59
2023/04/23 05:11:53;;;;;;;18.37;16.47;;;13.60;76.60;;;16.45;52.63;100677.38;5034089;28;20606;-65
2023/04/23 05:14:20;;;;;;;19.77;17.63;;;13.60;76.60;;;16.43;52.47;100682.06;5044974;28;20215;-57
2023/04/23 05:16:48;;;;;;;18.70;16.70;;;13.60;76.80;;;16.43;52.50;100679.41;5028067;28;20582;-56
2023/04/23 05:19:15;;;;;;;20.03;17.90;;;13.60;76.80;;;16.43;52.40;100674.09;5034169;28;20558;-59
2023/04/23 05:21:43;;;;;;;18.83;16.83;;;13.60;76.80;;;16.42;52.24;100667.19;5033831;28;20214;-60
2023/04/23 05:24:10;;;;;;;20.00;17.67;;;13.50;76.90;;;16.42;52.67;100668.00;5033455;28;20221;-57
2023/04/23 05:26:37;;;;;;;20.27;18.17;;;13.50;76.90;;;16.46;52.64;100668.38;5033709;28;20209;-59
2023/04/23 05:29:04;;;;;;;19.70;17.53;;;13.50;77.10;;;16.49;52.47;100667.94;5033305;28;20199;-59
2023/04/23 05:31:31;;;;;;;19.77;17.63;;;13.60;77.00;;;16.52;52.18;100667.56;5030460;28;20244;-56
2023/04/23 05:33:58;;;;;;;19.30;17.30;;;13.60;76.90;;;16.52;52.10;100665.69;5035456;28;20202;-58
2023/04/23 05:36:26;;;;;;;19.37;17.37;;;13.60;76.60;;;16.53;52.31;100677.13;5053358;28;20277;-56
2023/04/23 05:38:54;;;;;;;20.80;18.60;;;13.60;76.30;;;16.50;52.03;100680.19;5037769;28;20193;-59
2023/04/23 05:41:21;;;;;;;20.40;17.60;;;13.60;76.10;;;16.51;52.19;100681.81;5037443;28;20226;-58
2023/04/23 05:43:48;;;;;;;18.63;15.83;;;13.70;76.30;;;16.55;51.98;100691.03;5036578;28;20737;-57
2023/04/23 05:46:15;;;;;;;21.67;17.60;;;13.70;76.20;;;16.53;51.99;100696.56;5039903;28;20205;-57
2023/04/23 05:48:42;;;;;;;18.20;16.23;;;13.70;76.30;;;16.58;52.40;100693.25;5038325;28;20213;-58
2023/04/23 05:51:10;;;;;;;21.83;18.60;;;13.70;76.30;;;16.51;52.33;100688.00;5037375;28;20202;-58
2023/04/23 05:53:37;;;;;;;21.47;19.27;;;13.70;76.50;;;16.46;52.80;100692.28;5037570;28;20220;-55
2023/04/23 05:56:05;;;;;;;22.27;19.87;;;13.70;76.50;;;16.38;52.69;100689.91;5037036;28;20241;-57
2023/04/23 05:58:32;;;;;;;22.63;19.63;;;13.70;76.60;;;16.30;53.21;100679.50;5037476;28;20218;-58
2023/04/23 06:00:59;;;;;;;20.20;18.10;;;13.70;76.30;;;16.30;52.80;100677.66;5035915;28;20687;-56
2023/04/23 06:03:26;;;;;;;21.30;19.10;;;13.70;76.30;;;16.33;53.05;100684.41;5036974;28;20217;-58
2023/04/23 06:05:53;;;;;;;21.93;19.07;;;13.60;76.50;;;16.28;53.14;100685.03;5037292;28;20679;-59
2023/04/23 06:08:20;;;;;;;20.00;17.97;;;13.60;76.70;;;16.27;53.31;100675.44;5037548;28;20240;-58
2023/04/23 06:10:50;;;;;;;19.27;17.27;;;13.60;76.80;;;16.34;52.96;100684.19;5036917;28;20582;-59
2023/04/23 06:13:18;;;;;;;17.83;15.83;;;13.60;76.80;;;16.43;52.78;100674.09;5035239;28;20209;-59
2023/04/23 06:15:45;;;;;;;23.90;21.13;;;13.60;76.80;;;16.36;53.05;100679.47;5036651;28;20217;-58
2023/04/23 06:18:12;;;;;;;22.40;20.00;;;13.60;77.00;;;16.32;52.83;100680.09;5036794;28;20198;-58
2023/04/23 06:20:39;;;;;;;22.67;20.13;;;13.60;76.70;;;16.27;53.23;100681.56;5037070;28;20658;-55
2023/04/23 06:23:06;;;;;;;18.73;16.73;;;13.60;76.80;;;16.32;52.88;100675.63;5036535;28;20218;-56
2023/04/23 06:25:33;;;;;;;20.13;17.50;;;13.60;76.60;;;16.40;53.31;100678.03;5036433;28;20255;-58
2023/04/23 06:28:00;;;;;;;19.97;17.87;;;13.70;77.00;;;16.45;52.76;100674.72;5036336;28;20195;-59
2023/04/23 06:30:28;;;;;;;18.33;16.43;;;13.70;76.90;;;16.50;52.62;100672.22;5036824;28;20203;-60
2023/04/23 06:32:55;;;;;;;22.07;19.73;;;13.70;76.90;;;16.51;53.05;100671.19;5052065;28;20203;-55
2023/04/23 06:35:22;;;;;;;22.20;20.00;;;13.70;76.70;;;16.52;52.75;100672.88;5036736;28;20210;-58
2023/04/23 06:37:49;;;;;;;22.17;19.83;;;13.70;76.70;;;16.51;52.58;100663.22;5036578;28;20198;-59
2023/04/23 06:40:16;;;;;;;20.37;17.93;;;13.70;76.50;;;16.49;52.83;100663.44;5036644;28;20217;-57
2023/04/23 06:42:44;;;;;;;20.73;18.53;;;13.80;76.50;;;16.54;52.75;100670.81;5035091;28;20206;-57
2023/04/23 06:45:11;;;;;;;21.00;18.90;;;13.80;76.60;;;16.63;52.59;100658.88;5035876;28;20267;-57
2023/04/23 06:47:39;;;;;;;23.23;20.13;;;13.80;76.50;;;16.63;52.34;100662.38;5036244;28;20195;-59
2023/04/23 06:50:07;;;;;;;22.67;20.33;;;13.80;76.00;;;16.65;52.44;100664.78;5036700;28;20284;-60
2023/04/23 06:52:35;;;;;;;23.07;20.47;;;13.90;75.80;;;16.65;52.04;100667.44;5036026;28;20555;-57
2023/04/23 06:55:02;;;;;;;20.57;18.33;;;13.90;75.30;;;16.67;51.52;100662.72;5036042;28;20217;-58
2023/04/23 06:57:29;;;;;;;20.57;18.37;;;13.90;74.80;;;16.74;51.13;100674.13;5035799;28;20268;-59
2023/04/23 06:59:56;;;;;;;23.90;19.90;;;14.00;74.80;;;16.72;51.77;100668.22;5036251;28;20198;-56
2023/04/23 07:02:23;;;;;;;23.40;20.87;;;14.00;75.40;;;16.77;51.66;100660.41;5051598;28;20230;-55
2023/04/23 07:04:52;;;;;;;27.30;24.10;;;14.00;75.10;;;16.76;51.72;100650.78;5035651;28;20284;-56
2023/04/23 07:07:19;;;;;;;19.33;17.23;;;14.00;74.80;;;16.85;51.82;100652.19;5035988;28;20202;-56
2023/04/23 07:09:46;;;;;;;18.17;16.27;;;14.00;75.20;;;17.04;51.53;100661.81;5035788;28;20190;-57
2023/04/23 07:12:12;;;;;;;24.50;20.97;;;14.10;75.40;;;17.15;51.09;100658.44;5035699;28;20209;-56
2023/04/23 07:14:39;;;;;;;21.77;19.57;;;14.20;75.30;;;17.27;50.95;100656.69;5035374;28;20582;-56
2023/04/23 07:17:07;;;;;;;21.57;19.27;;;14.30;75.00;;;17.32;50.73;100659.50;5035883;28;20191;-58
2023/04/23 07:19:34;;;;;;;23.40;19.50;;;14.40;74.60;;;17.35;50.48;100661.69;5035760;28;20297;-57
2023/04/23 07:22:02;;;;;;;23.50;21.20;;;14.40;74.00;;;17.37;50.42;100664.97;5035851;28;20217;-57
2023/04/23 07:24:29;;;;;;;24.87;22.30;;;14.50;74.10;;;17.31;50.37;100655.19;5035490;28;20221;-57
2023/04/23 07:26:58;;;;;;;26.53;23.13;;;14.50;73.70;;;17.31;50.21;100665.03;5047456;28;20652;-61
2023/04/23 07:29:24;;;;;;;25.13;22.43;;;14.60;73.40;;;17.41;50.24;100665.34;5016196;28;20192;-56
2023/04/23 07:31:51;;;;;;;26.63;23.07;;;14.60;73.20;;;17.56;49.75;100665.81;5017222;28;20191;-58
2023/04/23 07:34:18;;;;;;;26.67;23.70;;;14.70;73.00;;;18.10;49.11;100664.94;5033272;28;20214;-57
2023/04/23 07:36:45;;;;;;;27.53;24.67;;;14.80;73.20;;;18.61;47.21;100659.91;5036154;28;20198;-61
2023/04/23 07:39:14;;;;;;;24.90;22.40;;;15.10;71.80;;;19.31;46.59;100654.63;5035142;28;20203;-57
2023/04/23 07:41:40;;;;;;;25.93;23.23;;;15.40;71.10;;;20.02;44.33;100656.94;5035675;28;20602;-57
2023/04/23 07:44:07;;;;;;;25.47;22.83;;;15.90;69.40;;;20.78;43.61;100651.09;5035157;28;20214;-60
2023/04/23 07:46:34;;;;;;;26.03;23.07;;;16.40;68.00;;;21.44;41.51;100639.53;5035296;28;20194;-58
2023/04/23 07:49:01;;;;;;;21.77;19.57;;;16.90;66.10;;;21.97;41.16;100646.88;5034928;28;20201;-59
2023/04/23 07:51:30;;;;;;;21.13;18.97;;;17.50;65.80;;;22.37;40.20;100638.47;5035215;28;20237;-58
2023/04/23 07:53:57;;;;;;;21.90;19.73;;;17.90;64.30;;;22.92;38.79;100642.44;5046355;28;20191;-65
2023/04/23 07:56:26;;;;;;;20.67;18.47;;;18.30;62.00;;;23.45;37.45;100640.63;5013739;28;20641;-57
2023/04/23 07:58:55;;;;;;;22.10;19.93;;;18.80;60.00;;;23.97;36.27;100638.69;5018846;28;20735;-58
2023/04/23 08:01:22;;;;;;;20.60;18.23;;;19.20;58.50;;;24.56;35.47;100638.25;5033807;28;20679;-59
2023/04/23 08:03:49;;;;;;;20.97;18.87;;;19.70;57.50;;;25.08;34.87;100633.38;5034569;28;20214;-58
2023/04/23 08:06:19;;;;;;;21.50;19.43;;;20.20;56.60;;;25.46;32.89;100645.44;5035422;28;20186;-59
2023/04/23 08:08:46;;;;;;;20.53;18.53;;;20.60;54.60;;;25.75;33.39;100645.59;5034789;28;20197;-61
2023/04/23 08:11:13;;;;;;;20.77;18.67;;;21.00;54.10;;;26.18;32.39;100636.75;5035022;28;20203;-59
2023/04/23 08:13:41;;;;;;;21.07;19.03;;;21.30;52.40;;;26.73;31.24;100630.94;5034120;28;20186;-60
2023/04/23 08:16:08;;;;;;;20.63;18.50;;;21.70;51.50;;;27.18;30.53;100621.59;5034600;28;20207;-58
2023/04/23 08:18:35;;;;;;;22.57;20.27;;;22.10;50.90;;;27.58;29.19;100616.81;5035022;28;20663;-60
2023/04/23 08:21:03;;;;;;;21.57;19.47;;;22.30;48.10;;;27.90;28.71;100604.22;5035149;28;20206;-59
2023/04/23 08:23:30;;;;;;;21.07;19.17;;;22.60;47.50;;;28.09;27.88;100599.63;5034093;28;20231;-59
2023/04/23 08:25:57;;;;;;;20.23;18.33;;;22.90;45.40;;;28.11;27.35;100599.34;5035020;28;20224;-60
2023/04/23 08:28:24;;;;;;;17.93;16.23;;;23.10;43.90;;;28.13;27.51;100600.66;5034425;28;20285;-59
2023/04/23 08:30:53;;;;;;;18.80;17.00;;;23.20;43.80;;;28.32;27.11;100602.53;5034661;28;20695;-58
2023/04/23 08:33:20;;;;;;;16.67;14.97;;;23.40;43.10;;;28.67;26.61;100599.25;5034015;28;20190;-59
2023/04/23 08:35:47;;;;;;;21.70;19.73;;;23.60;42.80;;;29.21;25.52;100595.84;5033941;28;20214;-57
2023/04/23 08:38:14;;;;;;;18.23;16.40;;;23.70;41.00;;;29.67;26.01;100599.19;5049298;28;20211;-59
2023/04/23 08:40:43;;;;;;;17.83;16.03;;;24.10;42.10;;;30.26;25.02;100590.00;5033904;28;20202;-57
2023/04/23 08:43:17;;;;;;;16.70;15.20;;;24.50;41.30;;;30.70;24.17;100581.03;5035113;28;20218;-60
2023/04/23 08:45:48;;;;;;;17.53;15.77;;;24.90;39.50;;;31.22;23.32;100573.91;5049761;28;20221;-61
2023/04/23 08:48:18;;;;;;;16.57;14.97;;;25.30;38.10;;;31.68;23.24;100576.91;5032883;28;20656;-60
2023/04/23 08:50:46;;;;;;;16.10;14.60;;;25.60;38.10;;;32.15;22.51;100574.38;5033907;28;20186;-60
2023/04/23 08:53:18;;;;;;;15.00;13.67;;;25.90;36.90;;;32.57;22.02;100573.53;5033983;28;20183;-61
2023/04/23 08:55:48;;;;;;;12.83;11.63;;;26.30;36.50;;;33.33;21.96;100577.88;5033324;28;20207;-59
2023/04/23 08:58:15;;;;;;;15.20;13.80;;;26.70;36.70;;;34.03;20.56;100568.06;5034144;28;20250;-58
2023/04/23 09:00:43;;;;;;;15.63;14.13;;;27.10;34.60;;;34.30;19.57;100572.19;5034100;28;20205;-59
2023/04/23 09:03:11;;;;;;;14.83;13.53;;;27.40;32.10;;;33.87;19.78;100572.56;5033455;28;20219;-59
2023/04/23 09:05:40;;;;;;;15.00;13.80;;;27.60;32.00;;;33.86;19.87;100579.16;5033305;28;20229;-60
2023/04/23 09:08:09;;;;;;;15.60;14.10;;;27.70;31.30;;;33.92;19.50;100572.38;5033657;28;20224;-60
2023/04/23 09:10:40;;;;;;;13.57;12.30;;;27.90;30.90;;;34.04;19.36;100577.91;5034146;28;20194;-59
2023/04/23 09:13:07;;;;;;;12.93;11.80;;;28.00;30.40;;;34.12;19.15;100577.03;5045916;28;20691;-61
2023/04/23 09:15:38;;;;;;;12.23;11.13;;;28.10;30.20;;;34.47;18.63;100564.59;5030680;28;20214;-59
2023/04/23 09:18:06;;;;;;;12.23;11.23;;;28.30;29.20;;;34.60;18.13;100566.25;5033184;28;20183;-56
2023/04/23 09:20:33;;;;;;;11.20;10.30;;;28.40;28.50;;;34.78;18.00;100571.53;5032683;28;20241;-56
2023/04/23 09:23:07;;;;;;;11.53;10.50;;;28.60;28.50;;;34.92;17.32;100550.13;5033018;28;20214;-61
2023/04/23 09:25:35;;;;;;;12.23;11.13;;;28.70;27.80;;;35.03;17.12;100551.28;5033028;28;20210;-60
2023/04/23 09:28:10;;;;;;;11.07;10.10;;;28.90;27.60;;;34.93;17.67;100551.69;5033401;28;20193;-59
2023/04/23 09:30:43;;;;;;;11.57;10.57;;;28.90;27.70;;;35.32;17.37;100537.34;5032801;28;20189;-59
2023/04/23 09:33:11;;;;;;;12.80;11.65;;;29.10;27.70;;;35.15;16.46;100543.06;5032949;28;20630;-57
2023/04/23 09:35:41;;;;;;;11.13;10.03;;;28.90;26.90;;;34.78;17.42;100544.19;5032459;28;20222;-59
2023/04/23 09:38:10;;;;;;;10.83;9.83;;;28.90;27.40;;;34.87;17.38;100539.38;5033208;28;20194;-62
2023/04/23 09:40:37;;;;;;;11.38;10.27;;;29.00;27.40;;;34.91;17.18;100543.84;5032551;28;20199;-59
2023/04/23 09:43:06;;;;;;;11.03;10.10;;;28.90;26.70;;;34.73;17.63;100526.81;5042333;28;20210;-59
2023/04/23 09:45:34;;;;;;;11.60;10.60;;;28.90;26.70;;;34.86;16.92;100524.09;5032514;28;20214;-59
2023/04/23 09:48:01;;;;;;;9.68;8.88;;;29.00;26.90;;;34.98;17.02;100526.84;5033518;28;20291;-60
2023/04/23 09:50:33;;;;;;;11.33;10.33;;;29.10;27.30;;;35.06;17.04;100525.97;5031951;28;20206;-59
2023/04/23 09:53:00;;;;;;;9.47;8.67;;;29.10;26.80;;;34.96;17.40;100538.13;5033538;28;20175;-61
2023/04/23 09:55:34;;;;;;;10.83;9.83;;;29.20;27.00;;;34.87;17.52;100537.47;5032881;28;20221;-60
2023/04/23 09:58:02;;;;;;;10.05;9.25;;;29.10;26.90;;;35.00;17.76;100530.81;5033649;28;20218;-60
2023/04/23 10:00:35;;;;;;;10.80;9.90;;;29.20;27.20;;;35.35;17.45;100531.94;5033350;28;20368;-59
2023/04/23 10:03:03;;;;;;;8.73;8.02;;;29.30;27.10;;;35.75;17.71;100526.53;5032473;28;20206;-63